sensor_id;sensor_type;location;lat;lon;timestamp;P1;durP1;ratioP1;P2;durP2;ratioP2
2972;SDS011;1496;51.404;7.232;2023-07-31T00:00:48;10.30;;;4.70;;
2972;SDS011;1496;51.404;7.232;2023-07-31T00:03:13;10.43;;;4.40;;
2972;SDS011;1496;51.404;7.232;2023-07-31T00:05:39;9.50;;;4.67;;
2972;SDS011;1496;51.404;7.232;2023-07-31T00:08:04;7.17;;;3.43;;
2972;SDS011;1496;51.404;7.232;2023-07-31T00:10:30;12.97;;;4.50;;
2972;SDS011;1496;51.404;7.232;2023-07-31T00:12:56;12.10;;;4.70;;
2972;SDS011;1496;51.404;7.232;2023-07-31T00:15:21;8.30;;;3.97;;
2972;SDS011;1496;51.404;7.232;2023-07-31T00:17:47;14.30;;;5.07;;
2972;SDS011;1496;51.404;7.232;2023-07-31T00:20:13;9.57;;;4.40;;
2972;SDS011;1496;51.404;7.232;2023-07-31T00:22:38;11.37;;;4.10;;
2972;SDS011;1496;51.404;7.232;2023-07-31T00:25:05;11.53;;;4.33;;
2972;SDS011;1496;51.404;7.232;2023-07-31T00:27:31;8.20;;;4.10;;
2972;SDS011;1496;51.404;7.232;2023-07-31T00:29:57;11.90;;;4.23;;
2972;SDS011;1496;51.404;7.232;2023-07-31T00:32:24;10.23;;;4.83;;
2972;SDS011;1496;51.404;7.232;2023-07-31T00:34:50;9.70;;;3.97;;
2972;SDS011;1496;51.404;7.232;2023-07-31T00:37:16;10.63;;;5.50;;
2972;SDS011;1496;51.404;7.232;2023-07-31T00:39:41;12.27;;;4.43;;
2972;SDS011;1496;51.404;7.232;2023-07-31T00:42:07;7.30;;;4.60;;
2972;SDS011;1496;51.404;7.232;2023-07-31T00:44:33;9.60;;;4.50;;
2972;SDS011;1496;51.404;7.232;2023-07-31T00:46:59;13.77;;;5.33;;
2972;SDS011;1496;51.404;7.232;2023-07-31T00:49:25;12.37;;;5.00;;
2972;SDS011;1496;51.404;7.232;2023-07-31T00:51:51;9.40;;;4.70;;
2972;SDS011;1496;51.404;7.232;2023-07-31T00:54:17;8.20;;;3.87;;
2972;SDS011;1496;51.404;7.232;2023-07-31T00:56:44;13.60;;;5.17;;
2972;SDS011;1496;51.404;7.232;2023-07-31T00:59:13;9.20;;;4.57;;
2972;SDS011;1496;51.404;7.232;2023-07-31T01:01:39;13.07;;;5.47;;
2972;SDS011;1496;51.404;7.232;2023-07-31T01:04:05;10.60;;;4.60;;
2972;SDS011;1496;51.404;7.232;2023-07-31T01:06:37;14.20;;;5.60;;
2972;SDS011;1496;51.404;7.232;2023-07-31T01:11:56;10.50;;;5.50;;
2972;SDS011;1496;51.404;7.232;2023-07-31T01:14:25;7.57;;;4.60;;
2972;SDS011;1496;51.404;7.232;2023-07-31T01:16:50;30.33;;;6.33;;
2972;SDS011;1496;51.404;7.232;2023-07-31T01:19:17;9.83;;;5.40;;
2972;SDS011;1496;51.404;7.232;2023-07-31T01:24:54;13.47;;;6.13;;
2972;SDS011;1496;51.404;7.232;2023-07-31T01:27:53;11.03;;;4.50;;
2972;SDS011;1496;51.404;7.232;2023-07-31T01:30:25;16.80;;;5.40;;
2972;SDS011;1496;51.404;7.232;2023-07-31T01:32:58;9.03;;;4.80;;
2972;SDS011;1496;51.404;7.232;2023-07-31T01:35:27;11.13;;;4.70;;
2972;SDS011;1496;51.404;7.232;2023-07-31T01:37:53;8.97;;;3.90;;
2972;SDS011;1496;51.404;7.232;2023-07-31T01:40:19;7.60;;;4.63;;
2972;SDS011;1496;51.404;7.232;2023-07-31T01:42:45;8.87;;;4.50;;
2972;SDS011;1496;51.404;7.232;2023-07-31T01:45:11;9.73;;;3.70;;
2972;SDS011;1496;51.404;7.232;2023-07-31T01:47:37;7.77;;;4.27;;
2972;SDS011;1496;51.404;7.232;2023-07-31T01:50:02;10.37;;;4.10;;
2972;SDS011;1496;51.404;7.232;2023-07-31T01:52:28;7.17;;;4.03;;
2972;SDS011;1496;51.404;7.232;2023-07-31T01:54:55;10.73;;;4.97;;
2972;SDS011;1496;51.404;7.232;2023-07-31T01:57:20;10.70;;;5.10;;
2972;SDS011;1496;51.404;7.232;2023-07-31T01:59:46;12.10;;;4.33;;
2972;SDS011;1496;51.404;7.232;2023-07-31T02:02:12;11.13;;;5.10;;
2972;SDS011;1496;51.404;7.232;2023-07-31T02:04:38;9.83;;;4.47;;
2972;SDS011;1496;51.404;7.232;2023-07-31T02:07:05;12.77;;;4.63;;
2972;SDS011;1496;51.404;7.232;2023-07-31T02:09:30;10.63;;;4.23;;
2972;SDS011;1496;51.404;7.232;2023-07-31T02:11:58;11.40;;;4.77;;
2972;SDS011;1496;51.404;7.232;2023-07-31T02:14:23;7.47;;;3.83;;
2972;SDS011;1496;51.404;7.232;2023-07-31T02:16:49;8.63;;;4.27;;
2972;SDS011;1496;51.404;7.232;2023-07-31T02:19:15;15.97;;;4.90;;
2972;SDS011;1496;51.404;7.232;2023-07-31T02:21:41;9.83;;;3.70;;
2972;SDS011;1496;51.404;7.232;2023-07-31T02:24:06;12.00;;;4.20;;
2972;SDS011;1496;51.404;7.232;2023-07-31T02:26:32;10.47;;;3.70;;
2972;SDS011;1496;51.404;7.232;2023-07-31T02:28:58;6.77;;;3.90;;
2972;SDS011;1496;51.404;7.232;2023-07-31T02:31:24;8.63;;;4.40;;
2972;SDS011;1496;51.404;7.232;2023-07-31T02:33:49;19.63;;;4.70;;
2972;SDS011;1496;51.404;7.232;2023-07-31T02:36:15;11.23;;;4.57;;
2972;SDS011;1496;51.404;7.232;2023-07-31T02:38:41;9.37;;;4.60;;
2972;SDS011;1496;51.404;7.232;2023-07-31T02:41:06;13.37;;;5.47;;
2972;SDS011;1496;51.404;7.232;2023-07-31T02:43:32;11.27;;;4.60;;
2972;SDS011;1496;51.404;7.232;2023-07-31T02:45:59;14.47;;;4.63;;
2972;SDS011;1496;51.404;7.232;2023-07-31T02:48:25;14.30;;;6.00;;
2972;SDS011;1496;51.404;7.232;2023-07-31T02:50:51;14.20;;;6.17;;
2972;SDS011;1496;51.404;7.232;2023-07-31T02:53:16;12.27;;;4.00;;
2972;SDS011;1496;51.404;7.232;2023-07-31T02:55:42;9.63;;;4.40;;
2972;SDS011;1496;51.404;7.232;2023-07-31T02:58:08;11.57;;;4.73;;
2972;SDS011;1496;51.404;7.232;2023-07-31T03:00:33;14.80;;;4.00;;
2972;SDS011;1496;51.404;7.232;2023-07-31T03:02:59;13.13;;;5.07;;
2972;SDS011;1496;51.404;7.232;2023-07-31T03:05:24;16.90;;;5.03;;
2972;SDS011;1496;51.404;7.232;2023-07-31T03:07:50;9.40;;;5.90;;
2972;SDS011;1496;51.404;7.232;2023-07-31T03:10:16;9.23;;;4.53;;
2972;SDS011;1496;51.404;7.232;2023-07-31T03:12:42;12.33;;;4.03;;
2972;SDS011;1496;51.404;7.232;2023-07-31T03:15:11;16.67;;;4.90;;
2972;SDS011;1496;51.404;7.232;2023-07-31T03:17:36;12.27;;;4.10;;
2972;SDS011;1496;51.404;7.232;2023-07-31T03:20:02;11.47;;;4.17;;
2972;SDS011;1496;51.404;7.232;2023-07-31T03:22:29;12.50;;;5.30;;
2972;SDS011;1496;51.404;7.232;2023-07-31T03:24:54;8.07;;;4.43;;
2972;SDS011;1496;51.404;7.232;2023-07-31T03:27:20;10.10;;;3.60;;
2972;SDS011;1496;51.404;7.232;2023-07-31T03:29:46;8.93;;;4.57;;
2972;SDS011;1496;51.404;7.232;2023-07-31T03:32:11;14.00;;;4.30;;
2972;SDS011;1496;51.404;7.232;2023-07-31T03:34:37;10.53;;;4.13;;
2972;SDS011;1496;51.404;7.232;2023-07-31T03:37:04;13.47;;;4.50;;
2972;SDS011;1496;51.404;7.232;2023-07-31T03:39:30;8.20;;;4.20;;
2972;SDS011;1496;51.404;7.232;2023-07-31T03:41:56;13.90;;;3.77;;
2972;SDS011;1496;51.404;7.232;2023-07-31T03:44:21;6.43;;;3.50;;
2972;SDS011;1496;51.404;7.232;2023-07-31T03:46:47;7.07;;;3.33;;
2972;SDS011;1496;51.404;7.232;2023-07-31T03:49:13;10.93;;;4.07;;
2972;SDS011;1496;51.404;7.232;2023-07-31T03:51:38;9.97;;;4.20;;
2972;SDS011;1496;51.404;7.232;2023-07-31T03:54:04;10.33;;;4.80;;
2972;SDS011;1496;51.404;7.232;2023-07-31T03:56:30;12.83;;;4.30;;
2972;SDS011;1496;51.404;7.232;2023-07-31T03:58:55;6.93;;;3.53;;
2972;SDS011;1496;51.404;7.232;2023-07-31T04:01:21;13.87;;;5.43;;
2972;SDS011;1496;51.404;7.232;2023-07-31T04:03:49;9.90;;;3.97;;
2972;SDS011;1496;51.404;7.232;2023-07-31T04:06:15;13.37;;;4.27;;
2972;SDS011;1496;51.404;7.232;2023-07-31T04:08:43;12.00;;;4.37;;
2972;SDS011;1496;51.404;7.232;2023-07-31T04:11:10;11.67;;;4.37;;
2972;SDS011;1496;51.404;7.232;2023-07-31T04:13:37;8.53;;;3.30;;
2972;SDS011;1496;51.404;7.232;2023-07-31T04:16:03;12.80;;;4.93;;
2972;SDS011;1496;51.404;7.232;2023-07-31T04:18:28;16.17;;;5.17;;
2972;SDS011;1496;51.404;7.232;2023-07-31T04:20:56;11.10;;;4.70;;
2972;SDS011;1496;51.404;7.232;2023-07-31T04:23:23;8.47;;;4.23;;
2972;SDS011;1496;51.404;7.232;2023-07-31T04:25:49;7.70;;;3.90;;
2972;SDS011;1496;51.404;7.232;2023-07-31T04:28:15;8.13;;;4.50;;
2972;SDS011;1496;51.404;7.232;2023-07-31T04:30:40;9.83;;;4.47;;
2972;SDS011;1496;51.404;7.232;2023-07-31T04:33:06;10.30;;;4.13;;
2972;SDS011;1496;51.404;7.232;2023-07-31T04:35:32;14.10;;;5.20;;
2972;SDS011;1496;51.404;7.232;2023-07-31T04:37:57;15.87;;;4.07;;
2972;SDS011;1496;51.404;7.232;2023-07-31T04:40:23;14.33;;;4.53;;
2972;SDS011;1496;51.404;7.232;2023-07-31T04:42:49;10.83;;;4.50;;
2972;SDS011;1496;51.404;7.232;2023-07-31T04:45:15;15.30;;;4.90;;
2972;SDS011;1496;51.404;7.232;2023-07-31T04:47:41;8.93;;;4.33;;
2972;SDS011;1496;51.404;7.232;2023-07-31T04:50:06;11.17;;;3.90;;
2972;SDS011;1496;51.404;7.232;2023-07-31T04:52:32;8.80;;;4.47;;
2972;SDS011;1496;51.404;7.232;2023-07-31T04:54:58;8.70;;;5.53;;
2972;SDS011;1496;51.404;7.232;2023-07-31T04:57:23;11.43;;;4.87;;
2972;SDS011;1496;51.404;7.232;2023-07-31T04:59:49;8.10;;;4.50;;
2972;SDS011;1496;51.404;7.232;2023-07-31T05:02:15;8.27;;;4.50;;
2972;SDS011;1496;51.404;7.232;2023-07-31T05:04:41;13.30;;;5.60;;
2972;SDS011;1496;51.404;7.232;2023-07-31T05:07:06;10.47;;;5.10;;
2972;SDS011;1496;51.404;7.232;2023-07-31T05:09:32;8.87;;;4.37;;
2972;SDS011;1496;51.404;7.232;2023-07-31T05:11:58;12.40;;;4.73;;
2972;SDS011;1496;51.404;7.232;2023-07-31T05:14:25;9.77;;;4.97;;
2972;SDS011;1496;51.404;7.232;2023-07-31T05:16:51;13.33;;;4.30;;
2972;SDS011;1496;51.404;7.232;2023-07-31T05:19:17;9.93;;;5.20;;
2972;SDS011;1496;51.404;7.232;2023-07-31T05:21:43;24.87;;;6.17;;
2972;SDS011;1496;51.404;7.232;2023-07-31T05:24:09;14.00;;;5.87;;
2972;SDS011;1496;51.404;7.232;2023-07-31T05:26:35;9.60;;;5.20;;
2972;SDS011;1496;51.404;7.232;2023-07-31T05:29:02;13.83;;;5.07;;
2972;SDS011;1496;51.404;7.232;2023-07-31T05:31:28;9.50;;;5.20;;
2972;SDS011;1496;51.404;7.232;2023-07-31T05:33:54;9.23;;;4.97;;
2972;SDS011;1496;51.404;7.232;2023-07-31T05:36:19;7.73;;;4.67;;
2972;SDS011;1496;51.404;7.232;2023-07-31T05:38:45;9.10;;;4.93;;
2972;SDS011;1496;51.404;7.232;2023-07-31T05:41:12;13.47;;;4.87;;
2972;SDS011;1496;51.404;7.232;2023-07-31T05:43:37;8.30;;;4.27;;
2972;SDS011;1496;51.404;7.232;2023-07-31T05:46:03;14.53;;;4.77;;
2972;SDS011;1496;51.404;7.232;2023-07-31T05:48:29;8.87;;;4.63;;
2972;SDS011;1496;51.404;7.232;2023-07-31T05:50:54;9.40;;;4.73;;
2972;SDS011;1496;51.404;7.232;2023-07-31T05:53:20;8.00;;;4.50;;
2972;SDS011;1496;51.404;7.232;2023-07-31T05:55:46;6.80;;;4.63;;
2972;SDS011;1496;51.404;7.232;2023-07-31T05:58:11;7.57;;;4.10;;
2972;SDS011;1496;51.404;7.232;2023-07-31T06:00:37;14.80;;;5.37;;
2972;SDS011;1496;51.404;7.232;2023-07-31T06:03:03;12.40;;;5.63;;
2972;SDS011;1496;51.404;7.232;2023-07-31T06:05:29;10.90;;;5.67;;
2972;SDS011;1496;51.404;7.232;2023-07-31T06:07:55;10.30;;;5.13;;
2972;SDS011;1496;51.404;7.232;2023-07-31T06:10:21;9.13;;;4.90;;
2972;SDS011;1496;51.404;7.232;2023-07-31T06:12:47;17.70;;;5.97;;
2972;SDS011;1496;51.404;7.232;2023-07-31T06:15:13;8.47;;;4.90;;
2972;SDS011;1496;51.404;7.232;2023-07-31T06:17:39;12.50;;;5.33;;
2972;SDS011;1496;51.404;7.232;2023-07-31T06:20:05;9.20;;;5.30;;
2972;SDS011;1496;51.404;7.232;2023-07-31T06:22:32;8.63;;;5.17;;
2972;SDS011;1496;51.404;7.232;2023-07-31T06:24:57;6.50;;;4.30;;
2972;SDS011;1496;51.404;7.232;2023-07-31T06:27:23;16.43;;;5.90;;
2972;SDS011;1496;51.404;7.232;2023-07-31T06:29:49;12.63;;;4.80;;
2972;SDS011;1496;51.404;7.232;2023-07-31T06:32:15;15.67;;;6.10;;
2972;SDS011;1496;51.404;7.232;2023-07-31T06:34:41;13.63;;;5.60;;
2972;SDS011;1496;51.404;7.232;2023-07-31T06:37:06;14.30;;;5.70;;
2972;SDS011;1496;51.404;7.232;2023-07-31T06:39:32;13.47;;;5.37;;
2972;SDS011;1496;51.404;7.232;2023-07-31T06:41:58;12.97;;;4.77;;
2972;SDS011;1496;51.404;7.232;2023-07-31T06:44:24;15.60;;;5.33;;
2972;SDS011;1496;51.404;7.232;2023-07-31T06:46:50;10.63;;;5.80;;
2972;SDS011;1496;51.404;7.232;2023-07-31T06:49:16;8.03;;;4.70;;
2972;SDS011;1496;51.404;7.232;2023-07-31T06:51:41;9.30;;;5.10;;
2972;SDS011;1496;51.404;7.232;2023-07-31T06:54:08;6.97;;;4.27;;
2972;SDS011;1496;51.404;7.232;2023-07-31T06:56:33;10.30;;;4.50;;
2972;SDS011;1496;51.404;7.232;2023-07-31T06:58:59;11.67;;;5.10;;
2972;SDS011;1496;51.404;7.232;2023-07-31T07:01:25;7.57;;;4.03;;
2972;SDS011;1496;51.404;7.232;2023-07-31T07:03:51;9.87;;;6.00;;
2972;SDS011;1496;51.404;7.232;2023-07-31T07:06:17;9.27;;;4.70;;
2972;SDS011;1496;51.404;7.232;2023-07-31T07:08:43;7.63;;;4.77;;
2972;SDS011;1496;51.404;7.232;2023-07-31T07:11:08;7.53;;;5.03;;
2972;SDS011;1496;51.404;7.232;2023-07-31T07:13:34;10.87;;;5.20;;
2972;SDS011;1496;51.404;7.232;2023-07-31T07:16:00;7.23;;;4.47;;
2972;SDS011;1496;51.404;7.232;2023-07-31T07:18:25;9.10;;;5.60;;
2972;SDS011;1496;51.404;7.232;2023-07-31T07:20:52;12.13;;;5.20;;
2972;SDS011;1496;51.404;7.232;2023-07-31T07:23:19;10.90;;;4.10;;
2972;SDS011;1496;51.404;7.232;2023-07-31T07:25:45;11.70;;;4.37;;
2972;SDS011;1496;51.404;7.232;2023-07-31T07:28:12;6.90;;;5.00;;
2972;SDS011;1496;51.404;7.232;2023-07-31T07:30:38;8.00;;;4.30;;
2972;SDS011;1496;51.404;7.232;2023-07-31T07:33:04;10.37;;;5.17;;
2972;SDS011;1496;51.404;7.232;2023-07-31T07:35:33;7.83;;;4.47;;
2972;SDS011;1496;51.404;7.232;2023-07-31T07:37:59;10.77;;;5.03;;
2972;SDS011;1496;51.404;7.232;2023-07-31T07:40:26;8.67;;;4.33;;
2972;SDS011;1496;51.404;7.232;2023-07-31T07:42:51;17.60;;;5.73;;
2972;SDS011;1496;51.404;7.232;2023-07-31T07:45:17;10.00;;;4.50;;
2972;SDS011;1496;51.404;7.232;2023-07-31T07:47:42;8.27;;;4.50;;
2972;SDS011;1496;51.404;7.232;2023-07-31T07:50:08;9.93;;;5.10;;
2972;SDS011;1496;51.404;7.232;2023-07-31T07:52:34;8.00;;;4.40;;
2972;SDS011;1496;51.404;7.232;2023-07-31T07:55:00;8.07;;;5.20;;
2972;SDS011;1496;51.404;7.232;2023-07-31T07:57:25;6.67;;;4.70;;
2972;SDS011;1496;51.404;7.232;2023-07-31T07:59:51;16.00;;;4.90;;
2972;SDS011;1496;51.404;7.232;2023-07-31T08:02:17;9.17;;;4.73;;
2972;SDS011;1496;51.404;7.232;2023-07-31T08:04:43;9.27;;;5.20;;
2972;SDS011;1496;51.404;7.232;2023-07-31T08:07:12;12.97;;;5.20;;
2972;SDS011;1496;51.404;7.232;2023-07-31T08:09:38;9.90;;;4.50;;
2972;SDS011;1496;51.404;7.232;2023-07-31T08:12:05;9.10;;;5.40;;
2972;SDS011;1496;51.404;7.232;2023-07-31T08:14:31;5.13;;;3.93;;
2972;SDS011;1496;51.404;7.232;2023-07-31T08:16:57;9.53;;;5.20;;
2972;SDS011;1496;51.404;7.232;2023-07-31T08:19:22;7.50;;;4.53;;
2972;SDS011;1496;51.404;7.232;2023-07-31T08:21:48;7.90;;;4.57;;
2972;SDS011;1496;51.404;7.232;2023-07-31T08:24:14;12.63;;;5.10;;
2972;SDS011;1496;51.404;7.232;2023-07-31T08:26:39;7.17;;;4.30;;
2972;SDS011;1496;51.404;7.232;2023-07-31T08:29:05;8.57;;;4.23;;
2972;SDS011;1496;51.404;7.232;2023-07-31T08:31:31;8.53;;;3.90;;
2972;SDS011;1496;51.404;7.232;2023-07-31T08:33:56;7.47;;;4.47;;
2972;SDS011;1496;51.404;7.232;2023-07-31T08:36:22;5.00;;;3.93;;
2972;SDS011;1496;51.404;7.232;2023-07-31T08:38:48;4.87;;;2.83;;
2972;SDS011;1496;51.404;7.232;2023-07-31T08:41:15;5.27;;;3.53;;
2972;SDS011;1496;51.404;7.232;2023-07-31T08:43:42;6.20;;;3.63;;
2972;SDS011;1496;51.404;7.232;2023-07-31T08:46:10;7.50;;;4.00;;
2972;SDS011;1496;51.404;7.232;2023-07-31T08:48:37;4.53;;;3.17;;
2972;SDS011;1496;51.404;7.232;2023-07-31T08:51:04;8.03;;;3.23;;
2972;SDS011;1496;51.404;7.232;2023-07-31T08:53:29;6.53;;;3.93;;
2972;SDS011;1496;51.404;7.232;2023-07-31T08:55:55;8.37;;;3.50;;
2972;SDS011;1496;51.404;7.232;2023-07-31T08:58:23;5.50;;;3.40;;
2972;SDS011;1496;51.404;7.232;2023-07-31T09:00:50;9.17;;;3.70;;
2972;SDS011;1496;51.404;7.232;2023-07-31T09:03:17;6.30;;;3.70;;
2972;SDS011;1496;51.404;7.232;2023-07-31T09:05:44;4.40;;;3.17;;
2972;SDS011;1496;51.404;7.232;2023-07-31T09:08:15;5.00;;;3.33;;
2972;SDS011;1496;51.404;7.232;2023-07-31T09:10:45;5.60;;;2.93;;
2972;SDS011;1496;51.404;7.232;2023-07-31T09:13:15;4.63;;;3.50;;
2972;SDS011;1496;51.404;7.232;2023-07-31T09:15:43;4.20;;;3.10;;
2972;SDS011;1496;51.404;7.232;2023-07-31T09:18:09;7.10;;;3.53;;
2972;SDS011;1496;51.404;7.232;2023-07-31T09:20:35;6.53;;;3.83;;
2972;SDS011;1496;51.404;7.232;2023-07-31T09:23:12;4.13;;;2.60;;
2972;SDS011;1496;51.404;7.232;2023-07-31T09:25:39;4.30;;;2.80;;
2972;SDS011;1496;51.404;7.232;2023-07-31T09:28:09;6.53;;;3.97;;
2972;SDS011;1496;51.404;7.232;2023-07-31T09:30:48;8.27;;;3.70;;
2972;SDS011;1496;51.404;7.232;2023-07-31T09:33:16;5.20;;;3.10;;
2972;SDS011;1496;51.404;7.232;2023-07-31T09:35:42;6.70;;;3.30;;
2972;SDS011;1496;51.404;7.232;2023-07-31T09:38:12;8.27;;;3.30;;
2972;SDS011;1496;51.404;7.232;2023-07-31T09:40:40;5.47;;;3.20;;
2972;SDS011;1496;51.404;7.232;2023-07-31T09:43:11;4.60;;;2.93;;
2972;SDS011;1496;51.404;7.232;2023-07-31T09:45:39;5.90;;;3.20;;
2972;SDS011;1496;51.404;7.232;2023-07-31T09:48:10;4.60;;;2.87;;
2972;SDS011;1496;51.404;7.232;2023-07-31T09:50:38;9.60;;;3.23;;
2972;SDS011;1496;51.404;7.232;2023-07-31T09:53:06;5.93;;;3.10;;
2972;SDS011;1496;51.404;7.232;2023-07-31T09:55:33;4.63;;;3.00;;
2972;SDS011;1496;51.404;7.232;2023-07-31T09:58:00;4.30;;;2.70;;
2972;SDS011;1496;51.404;7.232;2023-07-31T10:00:35;3.87;;;2.60;;
2972;SDS011;1496;51.404;7.232;2023-07-31T10:03:06;4.67;;;2.13;;
2972;SDS011;1496;51.404;7.232;2023-07-31T10:05:43;2.67;;;2.10;;
2972;SDS011;1496;51.404;7.232;2023-07-31T10:08:14;3.90;;;2.77;;
2972;SDS011;1496;51.404;7.232;2023-07-31T10:10:41;4.27;;;2.30;;
2972;SDS011;1496;51.404;7.232;2023-07-31T10:13:08;11.27;;;4.00;;
2972;SDS011;1496;51.404;7.232;2023-07-31T10:15:35;5.23;;;2.50;;
2972;SDS011;1496;51.404;7.232;2023-07-31T10:18:02;2.97;;;1.87;;
2972;SDS011;1496;51.404;7.232;2023-07-31T10:20:27;3.57;;;2.07;;
2972;SDS011;1496;51.404;7.232;2023-07-31T10:22:54;5.53;;;2.53;;
2972;SDS011;1496;51.404;7.232;2023-07-31T10:25:21;3.60;;;2.10;;
2972;SDS011;1496;51.404;7.232;2023-07-31T10:27:48;3.33;;;2.30;;
2972;SDS011;1496;51.404;7.232;2023-07-31T10:30:16;2.23;;;1.90;;
2972;SDS011;1496;51.404;7.232;2023-07-31T10:32:44;3.30;;;1.90;;
2972;SDS011;1496;51.404;7.232;2023-07-31T10:35:10;3.80;;;2.40;;
2972;SDS011;1496;51.404;7.232;2023-07-31T10:37:37;2.93;;;2.10;;
2972;SDS011;1496;51.404;7.232;2023-07-31T10:40:04;2.90;;;2.10;;
2972;SDS011;1496;51.404;7.232;2023-07-31T10:42:32;3.83;;;2.03;;
2972;SDS011;1496;51.404;7.232;2023-07-31T10:45:08;2.20;;;1.63;;
2972;SDS011;1496;51.404;7.232;2023-07-31T10:47:43;3.90;;;2.47;;
2972;SDS011;1496;51.404;7.232;2023-07-31T10:50:16;3.20;;;2.33;;
2972;SDS011;1496;51.404;7.232;2023-07-31T10:52:50;4.20;;;2.60;;
2972;SDS011;1496;51.404;7.232;2023-07-31T10:56:02;3.50;;;2.50;;
2972;SDS011;1496;51.404;7.232;2023-07-31T10:58:06;4.17;;;2.90;;
2972;SDS011;1496;51.404;7.232;2023-07-31T11:00:37;3.20;;;2.90;;
2972;SDS011;1496;51.404;7.232;2023-07-31T11:08:29;6.30;;;4.20;;
2972;SDS011;1496;51.404;7.232;2023-07-31T11:16:08;7.37;;;4.27;;
2972;SDS011;1496;51.404;7.232;2023-07-31T11:18:34;9.37;;;4.30;;
2972;SDS011;1496;51.404;7.232;2023-07-31T11:21:00;5.80;;;4.13;;
2972;SDS011;1496;51.404;7.232;2023-07-31T11:23:26;7.97;;;5.00;;
2972;SDS011;1496;51.404;7.232;2023-07-31T11:25:51;4.87;;;4.20;;
2972;SDS011;1496;51.404;7.232;2023-07-31T11:28:17;9.40;;;4.43;;
2972;SDS011;1496;51.404;7.232;2023-07-31T11:30:44;6.10;;;4.73;;
2972;SDS011;1496;51.404;7.232;2023-07-31T11:33:11;8.40;;;4.80;;
2972;SDS011;1496;51.404;7.232;2023-07-31T11:35:43;8.67;;;4.70;;
2972;SDS011;1496;51.404;7.232;2023-07-31T11:38:33;8.10;;;4.33;;
2972;SDS011;1496;51.404;7.232;2023-07-31T11:41:02;7.00;;;4.60;;
2972;SDS011;1496;51.404;7.232;2023-07-31T11:43:29;9.70;;;4.63;;
2972;SDS011;1496;51.404;7.232;2023-07-31T11:45:56;9.90;;;4.20;;
2972;SDS011;1496;51.404;7.232;2023-07-31T11:48:30;7.80;;;4.00;;
2972;SDS011;1496;51.404;7.232;2023-07-31T11:51:04;5.33;;;4.10;;
2972;SDS011;1496;51.404;7.232;2023-07-31T11:56:14;6.93;;;3.40;;
2972;SDS011;1496;51.404;7.232;2023-07-31T11:58:42;5.57;;;4.17;;
2972;SDS011;1496;51.404;7.232;2023-07-31T12:01:11;8.07;;;4.50;;
2972;SDS011;1496;51.404;7.232;2023-07-31T12:03:39;6.93;;;3.23;;
2972;SDS011;1496;51.404;7.232;2023-07-31T12:06:06;5.60;;;3.23;;
2972;SDS011;1496;51.404;7.232;2023-07-31T12:08:32;4.97;;;3.50;;
2972;SDS011;1496;51.404;7.232;2023-07-31T12:11:02;5.63;;;3.00;;
2972;SDS011;1496;51.404;7.232;2023-07-31T12:13:32;4.43;;;3.43;;
2972;SDS011;1496;51.404;7.232;2023-07-31T12:15:59;5.73;;;3.60;;
2972;SDS011;1496;51.404;7.232;2023-07-31T12:18:27;4.17;;;2.80;;
2972;SDS011;1496;51.404;7.232;2023-07-31T12:20:55;4.80;;;3.03;;
2972;SDS011;1496;51.404;7.232;2023-07-31T12:23:29;3.63;;;2.70;;
2972;SDS011;1496;51.404;7.232;2023-07-31T12:26:09;4.07;;;2.70;;
2972;SDS011;1496;51.404;7.232;2023-07-31T12:28:37;4.10;;;2.60;;
2972;SDS011;1496;51.404;7.232;2023-07-31T12:31:11;2.93;;;2.63;;
2972;SDS011;1496;51.404;7.232;2023-07-31T12:33:39;4.47;;;2.73;;
2972;SDS011;1496;51.404;7.232;2023-07-31T12:36:23;6.87;;;3.13;;
2972;SDS011;1496;51.404;7.232;2023-07-31T12:38:49;2.60;;;2.00;;
2972;SDS011;1496;51.404;7.232;2023-07-31T12:41:16;3.00;;;2.30;;
2972;SDS011;1496;51.404;7.232;2023-07-31T12:43:42;2.40;;;2.00;;
2972;SDS011;1496;51.404;7.232;2023-07-31T12:46:08;3.07;;;2.20;;
2972;SDS011;1496;51.404;7.232;2023-07-31T12:48:34;2.43;;;2.07;;
2972;SDS011;1496;51.404;7.232;2023-07-31T12:51:01;3.93;;;2.17;;
2972;SDS011;1496;51.404;7.232;2023-07-31T12:53:27;2.87;;;2.40;;
2972;SDS011;1496;51.404;7.232;2023-07-31T12:55:54;4.30;;;2.97;;
2972;SDS011;1496;51.404;7.232;2023-07-31T12:58:20;3.67;;;2.73;;
2972;SDS011;1496;51.404;7.232;2023-07-31T13:00:45;3.10;;;2.40;;
2972;SDS011;1496;51.404;7.232;2023-07-31T13:03:11;6.13;;;2.67;;
2972;SDS011;1496;51.404;7.232;2023-07-31T13:05:37;4.50;;;3.03;;
2972;SDS011;1496;51.404;7.232;2023-07-31T13:08:02;3.27;;;2.20;;
2972;SDS011;1496;51.404;7.232;2023-07-31T13:10:28;2.60;;;2.00;;
2972;SDS011;1496;51.404;7.232;2023-07-31T13:12:55;3.13;;;2.00;;
2972;SDS011;1496;51.404;7.232;2023-07-31T13:15:21;5.63;;;2.20;;
2972;SDS011;1496;51.404;7.232;2023-07-31T13:17:47;3.90;;;1.80;;
2972;SDS011;1496;51.404;7.232;2023-07-31T13:20:13;2.57;;;1.80;;
2972;SDS011;1496;51.404;7.232;2023-07-31T13:22:38;2.40;;;1.70;;
2972;SDS011;1496;51.404;7.232;2023-07-31T13:25:04;3.80;;;1.93;;
2972;SDS011;1496;51.404;7.232;2023-07-31T13:27:31;5.63;;;2.50;;
2972;SDS011;1496;51.404;7.232;2023-07-31T13:29:56;3.30;;;2.13;;
2972;SDS011;1496;51.404;7.232;2023-07-31T13:32:23;4.07;;;2.30;;
2972;SDS011;1496;51.404;7.232;2023-07-31T13:34:49;5.90;;;2.73;;
2972;SDS011;1496;51.404;7.232;2023-07-31T13:37:14;3.77;;;2.17;;
2972;SDS011;1496;51.404;7.232;2023-07-31T13:39:41;2.80;;;2.40;;
2972;SDS011;1496;51.404;7.232;2023-07-31T13:42:07;4.47;;;2.60;;
2972;SDS011;1496;51.404;7.232;2023-07-31T13:44:42;2.90;;;2.50;;
2972;SDS011;1496;51.404;7.232;2023-07-31T13:47:08;4.13;;;2.80;;
2972;SDS011;1496;51.404;7.232;2023-07-31T13:49:35;3.10;;;2.80;;
2972;SDS011;1496;51.404;7.232;2023-07-31T13:52:01;6.53;;;3.00;;
2972;SDS011;1496;51.404;7.232;2023-07-31T13:54:28;8.10;;;2.97;;
2972;SDS011;1496;51.404;7.232;2023-07-31T13:56:53;6.03;;;3.47;;
2972;SDS011;1496;51.404;7.232;2023-07-31T13:59:19;4.20;;;3.17;;
2972;SDS011;1496;51.404;7.232;2023-07-31T14:01:46;6.50;;;3.33;;
2972;SDS011;1496;51.404;7.232;2023-07-31T14:04:12;4.90;;;3.00;;
2972;SDS011;1496;51.404;7.232;2023-07-31T14:06:38;4.47;;;3.37;;
2972;SDS011;1496;51.404;7.232;2023-07-31T14:09:04;3.53;;;3.00;;
2972;SDS011;1496;51.404;7.232;2023-07-31T14:11:33;5.00;;;3.43;;
2972;SDS011;1496;51.404;7.232;2023-07-31T14:13:59;5.90;;;4.07;;
2972;SDS011;1496;51.404;7.232;2023-07-31T14:16:27;5.57;;;3.00;;
2972;SDS011;1496;51.404;7.232;2023-07-31T14:18:53;5.27;;;3.50;;
2972;SDS011;1496;51.404;7.232;2023-07-31T14:21:19;5.60;;;3.33;;
2972;SDS011;1496;51.404;7.232;2023-07-31T14:23:47;6.67;;;3.40;;
2972;SDS011;1496;51.404;7.232;2023-07-31T14:26:13;5.53;;;3.30;;
2972;SDS011;1496;51.404;7.232;2023-07-31T14:28:38;9.37;;;3.90;;
2972;SDS011;1496;51.404;7.232;2023-07-31T14:31:04;9.10;;;3.93;;
2972;SDS011;1496;51.404;7.232;2023-07-31T14:33:29;6.80;;;3.50;;
2972;SDS011;1496;51.404;7.232;2023-07-31T14:35:55;11.00;;;3.83;;
2972;SDS011;1496;51.404;7.232;2023-07-31T14:38:21;5.73;;;3.80;;
2972;SDS011;1496;51.404;7.232;2023-07-31T14:40:46;4.50;;;3.63;;
2972;SDS011;1496;51.404;7.232;2023-07-31T14:43:12;8.90;;;3.77;;
2972;SDS011;1496;51.404;7.232;2023-07-31T14:45:38;4.70;;;3.10;;
2972;SDS011;1496;51.404;7.232;2023-07-31T14:48:03;7.00;;;4.03;;
2972;SDS011;1496;51.404;7.232;2023-07-31T14:50:29;5.30;;;3.10;;
2972;SDS011;1496;51.404;7.232;2023-07-31T14:52:55;9.87;;;3.70;;
2972;SDS011;1496;51.404;7.232;2023-07-31T14:55:20;7.33;;;3.60;;
2972;SDS011;1496;51.404;7.232;2023-07-31T14:57:46;4.23;;;3.17;;
2972;SDS011;1496;51.404;7.232;2023-07-31T15:00:12;4.97;;;3.43;;
2972;SDS011;1496;51.404;7.232;2023-07-31T15:02:38;5.90;;;3.40;;
2972;SDS011;1496;51.404;7.232;2023-07-31T15:05:05;4.83;;;3.13;;
2972;SDS011;1496;51.404;7.232;2023-07-31T15:07:31;6.53;;;3.73;;
2972;SDS011;1496;51.404;7.232;2023-07-31T15:09:57;4.93;;;3.37;;
2972;SDS011;1496;51.404;7.232;2023-07-31T15:12:23;4.67;;;3.50;;
2972;SDS011;1496;51.404;7.232;2023-07-31T15:14:49;4.90;;;3.20;;
2972;SDS011;1496;51.404;7.232;2023-07-31T15:17:15;4.97;;;3.70;;
2972;SDS011;1496;51.404;7.232;2023-07-31T15:19:40;5.27;;;3.40;;
2972;SDS011;1496;51.404;7.232;2023-07-31T15:22:06;5.00;;;3.87;;
2972;SDS011;1496;51.404;7.232;2023-07-31T15:24:32;4.67;;;3.37;;
2972;SDS011;1496;51.404;7.232;2023-07-31T15:26:58;6.07;;;3.63;;